sensor_id;sensor_type;location;lat;lon;timestamp;P1;durP1;ratioP1;P2;durP2;ratioP2
40731;SDS011;26420;52.256;9.096;2022-09-09T00:00:01;1.15;;;0.70;;
40731;SDS011;26420;52.256;9.096;2022-09-09T00:05:23;1.63;;;0.87;;
40731;SDS011;26420;52.256;9.096;2022-09-09T00:10:44;2.88;;;0.80;;
40731;SDS011;26420;52.256;9.096;2022-09-09T00:21:07;1.67;;;0.70;;
40731;SDS011;26420;52.256;9.096;2022-09-09T00:31:20;2.28;;;0.75;;
40731;SDS011;26420;52.256;9.096;2022-09-09T00:36:26;1.02;;;0.90;;
40731;SDS011;26420;52.256;9.096;2022-09-09T00:57:37;2.45;;;1.08;;
40731;SDS011;26420;52.256;9.096;2022-09-09T01:02:44;0.75;;;0.75;;
40731;SDS011;26420;52.256;9.096;2022-09-09T01:08:28;1.58;;;0.73;;
40731;SDS011;26420;52.256;9.096;2022-09-09T01:13:56;2.83;;;0.65;;
40731;SDS011;26420;52.256;9.096;2022-09-09T01:19:15;2.58;;;0.75;;
40731;SDS011;26420;52.256;9.096;2022-09-09T01:24:30;2.85;;;0.80;;
40731;SDS011;26420;52.256;9.096;2022-09-09T01:30:27;4.20;;;0.80;;
40731;SDS011;26420;52.256;9.096;2022-09-09T01:40:58;1.00;;;0.82;;
40731;SDS011;26420;52.256;9.096;2022-09-09T01:46:08;3.22;;;1.00;;
40731;SDS011;26420;52.256;9.096;2022-09-09T01:51:13;1.42;;;0.85;;
40731;SDS011;26420;52.256;9.096;2022-09-09T02:01:34;2.67;;;1.00;;
40731;SDS011;26420;52.256;9.096;2022-09-09T02:06:47;3.00;;;0.80;;
40731;SDS011;26420;52.256;9.096;2022-09-09T02:12:03;2.13;;;0.90;;
40731;SDS011;26420;52.256;9.096;2022-09-09T02:17:19;1.38;;;0.75;;
40731;SDS011;26420;52.256;9.096;2022-09-09T02:22:37;4.22;;;1.05;;
40731;SDS011;26420;52.256;9.096;2022-09-09T02:27:43;2.33;;;0.90;;
40731;SDS011;26420;52.256;9.096;2022-09-09T02:32:48;3.42;;;1.00;;
40731;SDS011;26420;52.256;9.096;2022-09-09T02:37:54;3.08;;;1.17;;
40731;SDS011;26420;52.256;9.096;2022-09-09T02:43:00;4.57;;;1.15;;
40731;SDS011;26420;52.256;9.096;2022-09-09T02:58:43;2.25;;;1.00;;
40731;SDS011;26420;52.256;9.096;2022-09-09T03:03:45;3.00;;;1.10;;
40731;SDS011;26420;52.256;9.096;2022-09-09T03:08:49;4.05;;;1.00;;
40731;SDS011;26420;52.256;9.096;2022-09-09T03:13:57;3.38;;;1.02;;
40731;SDS011;26420;52.256;9.096;2022-09-09T03:19:01;3.00;;;0.80;;
40731;SDS011;26420;52.256;9.096;2022-09-09T03:24:03;2.00;;;0.90;;
40731;SDS011;26420;52.256;9.096;2022-09-09T03:29:05;3.00;;;0.90;;
40731;SDS011;26420;52.256;9.096;2022-09-09T03:34:09;3.17;;;0.93;;
40731;SDS011;26420;52.256;9.096;2022-09-09T03:39:12;3.70;;;0.85;;
40731;SDS011;26420;52.256;9.096;2022-09-09T03:44:16;1.67;;;0.95;;
40731;SDS011;26420;52.256;9.096;2022-09-09T03:49:17;2.65;;;1.10;;
40731;SDS011;26420;52.256;9.096;2022-09-09T03:54:22;3.15;;;1.00;;
40731;SDS011;26420;52.256;9.096;2022-09-09T03:59:24;2.30;;;1.00;;
40731;SDS011;26420;52.256;9.096;2022-09-09T04:04:26;4.07;;;1.10;;
40731;SDS011;26420;52.256;9.096;2022-09-09T04:09:29;4.13;;;0.93;;
40731;SDS011;26420;52.256;9.096;2022-09-09T04:14:30;3.80;;;0.95;;
40731;SDS011;26420;52.256;9.096;2022-09-09T04:19:32;2.97;;;1.00;;
40731;SDS011;26420;52.256;9.096;2022-09-09T04:24:35;3.70;;;1.08;;
40731;SDS011;26420;52.256;9.096;2022-09-09T04:29:37;2.15;;;0.90;;
40731;SDS011;26420;52.256;9.096;2022-09-09T04:34:39;5.40;;;1.33;;
40731;SDS011;26420;52.256;9.096;2022-09-09T04:39:43;3.55;;;1.10;;
40731;SDS011;26420;52.256;9.096;2022-09-09T04:44:45;2.42;;;0.90;;
40731;SDS011;26420;52.256;9.096;2022-09-09T04:49:47;3.38;;;0.90;;
40731;SDS011;26420;52.256;9.096;2022-09-09T04:54:49;2.50;;;1.35;;
40731;SDS011;26420;52.256;9.096;2022-09-09T04:59:50;3.65;;;1.00;;
40731;SDS011;26420;52.256;9.096;2022-09-09T05:04:52;6.47;;;1.30;;
40731;SDS011;26420;52.256;9.096;2022-09-09T05:09:54;4.10;;;1.30;;
40731;SDS011;26420;52.256;9.096;2022-09-09T05:14:56;3.08;;;1.08;;
40731;SDS011;26420;52.256;9.096;2022-09-09T05:19:57;1.45;;;0.90;;
40731;SDS011;26420;52.256;9.096;2022-09-09T05:24:59;1.58;;;0.85;;
40731;SDS011;26420;52.256;9.096;2022-09-09T05:30:03;2.90;;;1.38;;
40731;SDS011;26420;52.256;9.096;2022-09-09T05:35:05;3.90;;;1.10;;
40731;SDS011;26420;52.256;9.096;2022-09-09T05:40:08;2.53;;;1.40;;
40731;SDS011;26420;52.256;9.096;2022-09-09T05:45:12;3.00;;;1.30;;
40731;SDS011;26420;52.256;9.096;2022-09-09T05:50:14;2.67;;;1.42;;
40731;SDS011;26420;52.256;9.096;2022-09-09T05:55:16;2.80;;;1.50;;
40731;SDS011;26420;52.256;9.096;2022-09-09T06:00:19;6.22;;;1.40;;
40731;SDS011;26420;52.256;9.096;2022-09-09T06:05:22;3.42;;;1.50;;
40731;SDS011;26420;52.256;9.096;2022-09-09T06:10:25;2.65;;;1.33;;
40731;SDS011;26420;52.256;9.096;2022-09-09T06:15:27;2.85;;;1.92;;
40731;SDS011;26420;52.256;9.096;2022-09-09T06:20:31;3.08;;;1.23;;
40731;SDS011;26420;52.256;9.096;2022-09-09T06:25:33;4.53;;;1.50;;
40731;SDS011;26420;52.256;9.096;2022-09-09T06:30:35;2.40;;;1.60;;
40731;SDS011;26420;52.256;9.096;2022-09-09T06:35:37;2.97;;;1.50;;
40731;SDS011;26420;52.256;9.096;2022-09-09T06:40:39;3.60;;;1.40;;
40731;SDS011;26420;52.256;9.096;2022-09-09T06:45:42;6.50;;;1.70;;
40731;SDS011;26420;52.256;9.096;2022-09-09T06:50:44;3.58;;;1.38;;
40731;SDS011;26420;52.256;9.096;2022-09-09T06:55:46;2.92;;;1.58;;
40731;SDS011;26420;52.256;9.096;2022-09-09T07:00:48;4.07;;;1.40;;
40731;SDS011;26420;52.256;9.096;2022-09-09T07:05:54;5.43;;;1.70;;
40731;SDS011;26420;52.256;9.096;2022-09-09T07:11:03;3.13;;;1.40;;
40731;SDS011;26420;52.256;9.096;2022-09-09T07:16:17;3.08;;;1.20;;
40731;SDS011;26420;52.256;9.096;2022-09-09T07:21:20;4.28;;;1.40;;
40731;SDS011;26420;52.256;9.096;2022-09-09T07:26:24;4.07;;;1.50;;
40731;SDS011;26420;52.256;9.096;2022-09-09T07:31:32;3.63;;;1.40;;
40731;SDS011;26420;52.256;9.096;2022-09-09T07:36:36;3.00;;;1.20;;
40731;SDS011;26420;52.256;9.096;2022-09-09T07:41:42;2.55;;;1.30;;
40731;SDS011;26420;52.256;9.096;2022-09-09T07:46:47;7.25;;;1.33;;
40731;SDS011;26420;52.256;9.096;2022-09-09T07:51:53;3.80;;;0.90;;
40731;SDS011;26420;52.256;9.096;2022-09-09T07:56:56;4.10;;;1.40;;
40731;SDS011;26420;52.256;9.096;2022-09-09T08:02:01;3.85;;;1.20;;
40731;SDS011;26420;52.256;9.096;2022-09-09T08:07:05;3.95;;;1.38;;
40731;SDS011;26420;52.256;9.096;2022-09-09T08:12:14;4.05;;;1.10;;
40731;SDS011;26420;52.256;9.096;2022-09-09T08:17:16;3.25;;;1.23;;
40731;SDS011;26420;52.256;9.096;2022-09-09T08:22:18;3.38;;;1.08;;
40731;SDS011;26420;52.256;9.096;2022-09-09T08:27:20;4.30;;;1.25;;
40731;SDS011;26420;52.256;9.096;2022-09-09T08:32:22;4.25;;;0.90;;
40731;SDS011;26420;52.256;9.096;2022-09-09T08:37:24;1.70;;;1.10;;
40731;SDS011;26420;52.256;9.096;2022-09-09T08:47:42;4.78;;;1.38;;
40731;SDS011;26420;52.256;9.096;2022-09-09T08:52:54;2.35;;;0.98;;
40731;SDS011;26420;52.256;9.096;2022-09-09T09:08:46;2.65;;;1.10;;
40731;SDS011;26420;52.256;9.096;2022-09-09T09:14:17;1.42;;;1.00;;
40731;SDS011;26420;52.256;9.096;2022-09-09T09:19:26;6.05;;;1.52;;
40731;SDS011;26420;52.256;9.096;2022-09-09T09:24:35;3.22;;;1.40;;
40731;SDS011;26420;52.256;9.096;2022-09-09T09:29:58;3.22;;;1.20;;
40731;SDS011;26420;52.256;9.096;2022-09-09T09:35:22;2.97;;;0.98;;
40731;SDS011;26420;52.256;9.096;2022-09-09T09:40:25;3.30;;;1.23;;
40731;SDS011;26420;52.256;9.096;2022-09-09T09:55:59;2.88;;;1.60;;
40731;SDS011;26420;52.256;9.096;2022-09-09T10:01:03;6.70;;;1.70;;
40731;SDS011;26420;52.256;9.096;2022-09-09T10:06:05;3.60;;;1.63;;
40731;SDS011;26420;52.256;9.096;2022-09-09T10:16:30;3.10;;;1.10;;
40731;SDS011;26420;52.256;9.096;2022-09-09T10:32:24;3.63;;;1.27;;
40731;SDS011;26420;52.256;9.096;2022-09-09T10:43:25;3.25;;;0.82;;
40731;SDS011;26420;52.256;9.096;2022-09-09T10:48:50;3.22;;;0.95;;
40731;SDS011;26420;52.256;9.096;2022-09-09T10:54:02;2.80;;;0.90;;
40731;SDS011;26420;52.256;9.096;2022-09-09T10:59:20;3.33;;;0.98;;
40731;SDS011;26420;52.256;9.096;2022-09-09T11:04:29;5.75;;;1.05;;
40731;SDS011;26420;52.256;9.096;2022-09-09T11:09:41;3.30;;;0.88;;
40731;SDS011;26420;52.256;9.096;2022-09-09T11:14:50;3.40;;;0.80;;
40731;SDS011;26420;52.256;9.096;2022-09-09T11:19:56;2.92;;;0.70;;
40731;SDS011;26420;52.256;9.096;2022-09-09T11:25:14;2.28;;;0.73;;
40731;SDS011;26420;52.256;9.096;2022-09-09T11:30:24;5.25;;;0.90;;
40731;SDS011;26420;52.256;9.096;2022-09-09T11:41:39;4.15;;;0.88;;
40731;SDS011;26420;52.256;9.096;2022-09-09T11:46:41;4.45;;;0.70;;
40731;SDS011;26420;52.256;9.096;2022-09-09T11:51:44;3.35;;;0.70;;
40731;SDS011;26420;52.256;9.096;2022-09-09T11:56:46;2.47;;;0.73;;
40731;SDS011;26420;52.256;9.096;2022-09-09T12:02:22;3.33;;;0.70;;
40731;SDS011;26420;52.256;9.096;2022-09-09T12:12:45;4.47;;;0.82;;
40731;SDS011;26420;52.256;9.096;2022-09-09T12:17:50;1.30;;;0.52;;
40731;SDS011;26420;52.256;9.096;2022-09-09T12:23:06;3.05;;;0.80;;
40731;SDS011;26420;52.256;9.096;2022-09-09T12:33:45;2.40;;;0.80;;
40731;SDS011;26420;52.256;9.096;2022-09-09T12:38:48;3.20;;;0.88;;
40731;SDS011;26420;52.256;9.096;2022-09-09T12:44:05;4.47;;;0.73;;
40731;SDS011;26420;52.256;9.096;2022-09-09T12:54:36;2.92;;;0.68;;
40731;SDS011;26420;52.256;9.096;2022-09-09T12:59:39;2.22;;;0.80;;
40731;SDS011;26420;52.256;9.096;2022-09-09T13:04:43;2.50;;;0.50;;
40731;SDS011;26420;52.256;9.096;2022-09-09T13:09:46;2.50;;;0.52;;
40731;SDS011;26420;52.256;9.096;2022-09-09T13:14:49;2.42;;;0.70;;
40731;SDS011;26420;52.256;9.096;2022-09-09T13:19:54;2.15;;;0.82;;
40731;SDS011;26420;52.256;9.096;2022-09-09T13:25:02;1.40;;;0.50;;
40731;SDS011;26420;52.256;9.096;2022-09-09T13:35:31;2.65;;;0.60;;
40731;SDS011;26420;52.256;9.096;2022-09-09T13:40:33;1.45;;;0.60;;
40731;SDS011;26420;52.256;9.096;2022-09-09T13:45:35;1.13;;;0.50;;
40731;SDS011;26420;52.256;9.096;2022-09-09T13:50:37;2.55;;;0.50;;
40731;SDS011;26420;52.256;9.096;2022-09-09T13:55:39;2.13;;;0.50;;
40731;SDS011;26420;52.256;9.096;2022-09-09T14:00:41;0.88;;;0.45;;
40731;SDS011;26420;52.256;9.096;2022-09-09T14:05:45;3.30;;;0.70;;
40731;SDS011;26420;52.256;9.096;2022-09-09T14:10:47;2.25;;;0.60;;
40731;SDS011;26420;52.256;9.096;2022-09-09T14:15:49;3.60;;;0.63;;
40731;SDS011;26420;52.256;9.096;2022-09-09T14:20:51;2.30;;;0.68;;
40731;SDS011;26420;52.256;9.096;2022-09-09T14:25:53;3.20;;;0.73;;
40731;SDS011;26420;52.256;9.096;2022-09-09T14:30:54;2.00;;;0.60;;
40731;SDS011;26420;52.256;9.096;2022-09-09T14:36:00;2.97;;;0.80;;
40731;SDS011;26420;52.256;9.096;2022-09-09T14:41:03;2.03;;;0.68;;
40731;SDS011;26420;52.256;9.096;2022-09-09T14:46:06;3.15;;;0.60;;
40731;SDS011;26420;52.256;9.096;2022-09-09T14:51:13;2.92;;;0.47;;
40731;SDS011;26420;52.256;9.096;2022-09-09T14:56:17;3.60;;;0.63;;
40731;SDS011;26420;52.256;9.096;2022-09-09T15:01:22;1.95;;;0.52;;
40731;SDS011;26420;52.256;9.096;2022-09-09T15:06:26;1.35;;;0.52;;
40731;SDS011;26420;52.256;9.096;2022-09-09T15:11:31;1.67;;;0.50;;
40731;SDS011;26420;52.256;9.096;2022-09-09T15:16:39;1.77;;;0.65;;
40731;SDS011;26420;52.256;9.096;2022-09-09T15:21:41;1.00;;;0.40;;
40731;SDS011;26420;52.256;9.096;2022-09-09T15:26:43;2.17;;;0.40;;
40731;SDS011;26420;52.256;9.096;2022-09-09T15:31:44;2.25;;;0.63;;
40731;SDS011;26420;52.256;9.096;2022-09-09T15:36:47;1.70;;;0.40;;
40731;SDS011;26420;52.256;9.096;2022-09-09T15:41:49;1.60;;;0.55;;
40731;SDS011;26420;52.256;9.096;2022-09-09T15:46:51;1.95;;;0.68;;
40731;SDS011;26420;52.256;9.096;2022-09-09T15:51:57;1.00;;;0.50;;
40731;SDS011;26420;52.256;9.096;2022-09-09T15:57:05;1.30;;;0.70;;
40731;SDS011;26420;52.256;9.096;2022-09-09T16:02:08;3.30;;;0.60;;
40731;SDS011;26420;52.256;9.096;2022-09-09T16:07:10;2.35;;;0.55;;
40731;SDS011;26420;52.256;9.096;2022-09-09T16:12:12;3.20;;;0.80;;
40731;SDS011;26420;52.256;9.096;2022-09-09T16:17:15;2.63;;;0.60;;
40731;SDS011;26420;52.256;9.096;2022-09-09T16:22:17;2.08;;;0.65;;
40731;SDS011;26420;52.256;9.096;2022-09-09T16:27:19;1.10;;;0.50;;
40731;SDS011;26420;52.256;9.096;2022-09-09T16:32:20;1.42;;;0.50;;
40731;SDS011;26420;52.256;9.096;2022-09-09T16:37:23;2.60;;;0.70;;
40731;SDS011;26420;52.256;9.096;2022-09-09T16:42:25;1.90;;;0.52;;
40731;SDS011;26420;52.256;9.096;2022-09-09T16:47:26;2.70;;;0.52;;
40731;SDS011;26420;52.256;9.096;2022-09-09T16:52:28;2.38;;;0.50;;
40731;SDS011;26420;52.256;9.096;2022-09-09T16:57:30;3.80;;;0.70;;
40731;SDS011;26420;52.256;9.096;2022-09-09T17:02:32;2.03;;;0.63;;
40731;SDS011;26420;52.256;9.096;2022-09-09T17:07:33;3.10;;;0.55;;
40731;SDS011;26420;52.256;9.096;2022-09-09T17:12:35;1.85;;;0.73;;
40731;SDS011;26420;52.256;9.096;2022-09-09T17:17:42;2.70;;;0.70;;
40731;SDS011;26420;52.256;9.096;2022-09-09T17:22:46;0.95;;;0.55;;
40731;SDS011;26420;52.256;9.096;2022-09-09T17:27:47;2.03;;;0.70;;
40731;SDS011;26420;52.256;9.096;2022-09-09T17:32:49;1.10;;;0.60;;
40731;SDS011;26420;52.256;9.096;2022-09-09T17:37:52;1.88;;;0.90;;
40731;SDS011;26420;52.256;9.096;2022-09-09T17:42:55;2.05;;;0.95;;
40731;SDS011;26420;52.256;9.096;2022-09-09T17:47:57;2.75;;;0.68;;
40731;SDS011;26420;52.256;9.096;2022-09-09T17:52:59;1.77;;;0.55;;
40731;SDS011;26420;52.256;9.096;2022-09-09T17:58:02;3.17;;;0.88;;
40731;SDS011;26420;52.256;9.096;2022-09-09T18:03:03;1.38;;;0.50;;
40731;SDS011;26420;52.256;9.096;2022-09-09T18:08:05;3.92;;;0.93;;
40731;SDS011;26420;52.256;9.096;2022-09-09T18:13:07;1.83;;;0.80;;
40731;SDS011;26420;52.256;9.096;2022-09-09T18:18:10;2.97;;;0.80;;
40731;SDS011;26420;52.256;9.096;2022-09-09T18:23:12;3.10;;;0.63;;
40731;SDS011;26420;52.256;9.096;2022-09-09T18:28:13;2.25;;;0.80;;
40731;SDS011;26420;52.256;9.096;2022-09-09T18:33:15;2.05;;;0.65;;
40731;SDS011;26420;52.256;9.096;2022-09-09T18:38:17;2.70;;;0.88;;
40731;SDS011;26420;52.256;9.096;2022-09-09T18:43:18;2.53;;;0.98;;
40731;SDS011;26420;52.256;9.096;2022-09-09T18:48:20;2.42;;;0.60;;
40731;SDS011;26420;52.256;9.096;2022-09-09T18:53:22;2.95;;;0.73;;
40731;SDS011;26420;52.256;9.096;2022-09-09T18:58:23;2.17;;;0.70;;
40731;SDS011;26420;52.256;9.096;2022-09-09T19:03:25;2.78;;;0.90;;
40731;SDS011;26420;52.256;9.096;2022-09-09T19:08:28;1.73;;;0.80;;
40731;SDS011;26420;52.256;9.096;2022-09-09T19:13:31;2.95;;;0.75;;
40731;SDS011;26420;52.256;9.096;2022-09-09T19:18:33;2.28;;;0.90;;
40731;SDS011;26420;52.256;9.096;2022-09-09T19:23:39;3.00;;;0.82;;
40731;SDS011;26420;52.256;9.096;2022-09-09T19:28:43;1.95;;;0.85;;
40731;SDS011;26420;52.256;9.096;2022-09-09T19:33:51;3.72;;;0.93;;
40731;SDS011;26420;52.256;9.096;2022-09-09T19:38:53;1.90;;;0.70;;
40731;SDS011;26420;52.256;9.096;2022-09-09T19:43:59;2.17;;;0.65;;
40731;SDS011;26420;52.256;9.096;2022-09-09T19:49:03;1.23;;;0.57;;
40731;SDS011;26420;52.256;9.096;2022-09-09T19:54:09;2.78;;;0.70;;
40731;SDS011;26420;52.256;9.096;2022-09-09T19:59:14;1.67;;;0.50;;
40731;SDS011;26420;52.256;9.096;2022-09-09T20:04:16;2.25;;;0.75;;
40731;SDS011;26420;52.256;9.096;2022-09-09T20:09:18;1.85;;;0.70;;
40731;SDS011;26420;52.256;9.096;2022-09-09T20:14:20;0.50;;;0.50;;
40731;SDS011;26420;52.256;9.096;2022-09-09T20:19:22;1.58;;;0.75;;
40731;SDS011;26420;52.256;9.096;2022-09-09T20:24:23;1.90;;;0.80;;
40731;SDS011;26420;52.256;9.096;2022-09-09T20:29:26;0.95;;;0.63;;
40731;SDS011;26420;52.256;9.096;2022-09-09T20:34:27;1.60;;;0.70;;
40731;SDS011;26420;52.256;9.096;2022-09-09T20:39:30;2.30;;;0.70;;
40731;SDS011;26420;52.256;9.096;2022-09-09T20:44:32;1.92;;;0.80;;
40731;SDS011;26420;52.256;9.096;2022-09-09T20:49:34;0.93;;;0.85;;
40731;SDS011;26420;52.256;9.096;2022-09-09T20:54:35;1.55;;;0.75;;
40731;SDS011;26420;52.256;9.096;2022-09-09T20:59:38;1.67;;;0.73;;
40731;SDS011;26420;52.256;9.096;2022-09-09T21:04:41;2.50;;;0.98;;
40731;SDS011;26420;52.256;9.096;2022-09-09T21:09:44;3.47;;;0.90;;
40731;SDS011;26420;52.256;9.096;2022-09-09T21:14:46;2.47;;;0.93;;
40731;SDS011;26420;52.256;9.096;2022-09-09T21:19:48;3.58;;;0.93;;
40731;SDS011;26420;52.256;9.096;2022-09-09T21:24:49;1.63;;;0.85;;
40731;SDS011;26420;52.256;9.096;2022-09-09T21:29:51;0.82;;;0.73;;
40731;SDS011;26420;52.256;9.096;2022-09-09T21:34:53;3.05;;;0.85;;
40731;SDS011;26420;52.256;9.096;2022-09-09T21:39:54;2.17;;;0.80;;
40731;SDS011;26420;52.256;9.096;2022-09-09T21:44:56;1.88;;;0.70;;
40731;SDS011;26420;52.256;9.096;2022-09-09T21:49:58;2.53;;;0.80;;
40731;SDS011;26420;52.256;9.096;2022-09-09T21:55:01;1.98;;;0.82;;
40731;SDS011;26420;52.256;9.096;2022-09-09T22:00:06;1.58;;;0.85;;
40731;SDS011;26420;52.256;9.096;2022-09-09T22:05:12;2.10;;;0.80;;
40731;SDS011;26420;52.256;9.096;2022-09-09T22:10:14;2.33;;;0.70;;
40731;SDS011;26420;52.256;9.096;2022-09-09T22:15:17;1.65;;;0.93;;
40731;SDS011;26420;52.256;9.096;2022-09-09T22:20:19;2.30;;;0.85;;
40731;SDS011;26420;52.256;9.096;2022-09-09T22:25:21;0.85;;;0.70;;
40731;SDS011;26420;52.256;9.096;2022-09-09T22:30:23;0.70;;;0.63;;
40731;SDS011;26420;52.256;9.096;2022-09-09T22:35:25;1.77;;;0.73;;
40731;SDS011;26420;52.256;9.096;2022-09-09T22:40:27;2.45;;;0.80;;
40731;SDS011;26420;52.256;9.096;2022-09-09T22:45:30;1.20;;;1.08;;
40731;SDS011;26420;52.256;9.096;2022-09-09T22:50:33;1.88;;;1.05;;
40731;SDS011;26420;52.256;9.096;2022-09-09T22:55:42;1.00;;;0.75;;
40731;SDS011;26420;52.256;9.096;2022-09-09T23:00:54;0.73;;;0.73;;
40731;SDS011;26420;52.256;9.096;2022-09-09T23:05:59;2.95;;;0.80;;
40731;SDS011;26420;52.256;9.096;2022-09-09T23:11:04;3.63;;;0.80;;
40731;SDS011;26420;52.256;9.096;2022-09-09T23:16:10;1.65;;;0.70;;
40731;SDS011;26420;52.256;9.096;2022-09-09T23:21:13;2.45;;;0.75;;
40731;SDS011;26420;52.256;9.096;2022-09-09T23:26:15;2.45;;;0.80;;
40731;SDS011;26420;52.256;9.096;2022-09-09T23:31:21;3.20;;;1.00;;
40731;SDS011;26420;52.256;9.096;2022-09-09T23:36:25;1.98;;;0.80;;
40731;SDS011;26420;52.256;9.096;2022-09-09T23:41:29;0.93;;;0.90;;
40731;SDS011;26420;52.256;9.096;2022-09-09T23:46:33;2.15;;;0.73;;
40731;SDS011;26420;52.256;9.096;2022-09-09T23:51:35;2.20;;;1.00;;
40731;SDS011;26420;52.256;9.096;2022-09-09T23:56:38;1.65;;;0.80;;
